Time;durP1;ratioP1;P1;durP2;ratioP2;P2;SDS_P1;SDS_P2;PMS_P1;PMS_P2;Temp;Humidity;BMP_temperature;BMP_pressure;BME280_temperature;BME280_humidity;BME280_pressure;Samples;Min_cycle;Max_cycle;Signal;HPM_P1;HPM_P2
2023/07/08 00:01:19;;;;;;;5.53;3.10;;;20.10;59.10;;;;;;5023345;28;20203;-74
2023/07/08 00:03:47;;;;;;;5.03;3.25;;;20.00;58.60;;;;;;5022085;28;20222;-73
2023/07/08 00:06:26;;;;;;;9.43;5.13;;;19.90;58.80;;;;;;5026079;28;20224;-74
2023/07/08 00:08:53;;;;;;;8.57;3.38;;;19.90;59.40;;;;;;5027644;28;20615;-74
2023/07/08 00:11:21;;;;;;;13.30;9.07;;;19.80;57.70;;;;;;5027757;28;20193;-75
2023/07/08 00:13:48;;;;;;;8.02;5.32;;;19.90;59.40;;;;;;5028912;28;20636;-74
2023/07/08 00:16:18;;;;;;;9.20;6.22;;;19.90;59.60;;;;;;5026421;28;20196;-75
2023/07/08 00:18:46;;;;;;;5.10;3.75;;;19.80;59.50;;;;;;5024193;28;20196;-75
2023/07/08 00:21:15;;;;;;;7.65;3.75;;;19.70;60.50;;;;;;5025842;28;20204;-66
2023/07/08 00:23:47;;;;;;;7.88;3.35;;;19.70;60.30;;;;;;5023902;28;20208;-74
2023/07/08 00:26:27;;;;;;;2.95;2.50;;;19.70;61.20;;;;;;5023355;28;20247;-75
2023/07/08 00:28:55;;;;;;;4.20;2.30;;;19.70;60.60;;;;;;5028217;28;20192;-75
2023/07/08 00:31:26;;;;;;;4.30;2.38;;;19.70;61.40;;;;;;5027833;28;20204;-75
2023/07/08 00:33:55;;;;;;;3.40;2.42;;;19.70;59.40;;;;;;5025335;28;20565;-75
2023/07/08 00:36:25;;;;;;;2.28;2.08;;;19.70;61.60;;;;;;5028776;28;20236;-76
2023/07/08 00:38:52;;;;;;;2.30;1.90;;;19.70;61.70;;;;;;5023501;28;20670;-70
2023/07/08 00:41:38;;;;;;;3.88;2.30;;;19.70;62.40;;;;;;5028117;28;20279;-73
2023/07/08 00:44:05;;;;;;;4.88;2.38;;;19.60;60.90;;;;;;5025658;28;20278;-73
2023/07/08 00:46:41;;;;;;;3.30;2.55;;;19.60;61.80;;;;;;5027720;28;20295;-73
2023/07/08 00:49:20;;;;;;;2.10;1.90;;;19.60;62.00;;;;;;5026511;28;20206;-73
2023/07/08 00:51:48;;;;;;;3.50;2.28;;;19.60;62.20;;;;;;5029479;28;20792;-73
2023/07/08 00:54:18;;;;;;;2.63;2.25;;;19.50;64.30;;;;;;5027537;28;20196;-74
2023/07/08 00:57:01;;;;;;;2.72;1.85;;;19.50;65.70;;;;;;5018564;28;20701;-72
2023/07/08 01:00:04;;;;;;;3.03;2.20;;;19.50;64.20;;;;;;5022919;28;20215;-72
2023/07/08 01:02:35;;;;;;;2.92;1.98;;;19.50;64.40;;;;;;5017478;28;20212;-70
2023/07/08 01:05:10;;;;;;;2.67;1.80;;;19.50;64.20;;;;;;5023261;28;20217;-72
2023/07/08 01:07:43;;;;;;;5.85;1.85;;;19.50;64.40;;;;;;5030606;28;21079;-68
2023/07/08 01:10:17;;;;;;;2.97;2.10;;;19.50;65.70;;;;;;5013159;28;20205;-68
2023/07/08 01:12:51;;;;;;;2.08;1.60;;;19.50;64.80;;;;;;5029061;28;20521;-68
2023/07/08 01:15:21;;;;;;;2.03;1.83;;;19.40;64.90;;;;;;5021263;28;20293;-68
2023/07/08 01:17:53;;;;;;;2.17;1.95;;;19.40;66.20;;;;;;5024412;28;20200;-70
2023/07/08 01:20:21;;;;;;;2.45;1.83;;;19.40;65.60;;;;;;5029666;28;20208;-70
2023/07/08 01:22:49;;;;;;;2.40;1.85;;;19.40;67.40;;;;;;5007988;28;20197;-69
2023/07/08 01:25:17;;;;;;;2.08;1.75;;;19.30;66.90;;;;;;5029472;28;20326;-69
2023/07/08 01:27:49;;;;;;;2.10;1.90;;;19.30;65.60;;;;;;5028715;28;20709;-69
2023/07/08 01:30:16;;;;;;;2.30;1.70;;;19.30;68.30;;;;;;5012760;28;20568;-69
2023/07/08 01:32:49;;;;;;;3.00;1.83;;;19.30;68.30;;;;;;5030234;28;20303;-68
2023/07/08 01:35:17;;;;;;;6.55;1.92;;;19.30;67.30;;;;;;5020674;28;20197;-69
2023/07/08 01:37:58;;;;;;;2.42;1.85;;;19.30;66.90;;;;;;5020353;28;20904;-69
2023/07/08 01:40:30;;;;;;;2.60;1.90;;;19.30;69.30;;;;;;5027027;28;20180;-68
2023/07/08 01:42:58;;;;;;;3.03;2.05;;;19.30;68.50;;;;;;5030100;28;20194;-67
2023/07/08 01:45:31;;;;;;;4.25;1.80;;;19.30;67.80;;;;;;5028601;28;20568;-68
2023/07/08 01:48:00;;;;;;;4.07;1.73;;;19.30;67.30;;;;;;5030525;28;20193;-68
2023/07/08 01:50:29;;;;;;;3.10;2.03;;;19.30;68.20;;;;;;5031044;28;20793;-68
2023/07/08 01:52:59;;;;;;;4.65;1.88;;;19.20;69.50;;;;;;5029985;28;20193;-68
2023/07/08 01:55:30;;;;;;;4.47;1.83;;;19.30;70.40;;;;;;5032614;28;20303;-69
2023/07/08 01:57:57;;;;;;;3.42;2.38;;;19.20;71.50;;;;;;5028622;28;20410;-68
2023/07/08 02:04:26;;;;;;;1.85;1.70;;;19.20;71.20;;;;;;5024169;28;20563;-68
2023/07/08 02:06:55;;;;;;;2.78;2.10;;;19.20;71.30;;;;;;5008611;28;20250;-68
2023/07/08 02:09:24;;;;;;;3.92;2.13;;;19.20;70.10;;;;;;5025955;28;20200;-68
2023/07/08 02:11:53;;;;;;;2.20;1.90;;;19.20;70.30;;;;;;5027991;28;20645;-69
2023/07/08 02:14:20;;;;;;;2.10;1.80;;;19.10;93.30;;;;;;5028139;28;20201;-67
2023/07/08 02:16:48;;;;;;;3.50;1.73;;;19.10;70.60;;;;;;5029006;28;20797;-67
2023/07/08 02:19:15;;;;;;;5.57;1.65;;;19.10;70.80;;;;;;5029043;28;20216;-68
2023/07/08 02:21:42;;;;;;;4.28;1.98;;;19.10;71.80;;;;;;5019929;28;20197;-68
2023/07/08 02:24:09;;;;;;;1.90;1.70;;;19.00;72.00;;;;;;5027642;28;20236;-62
2023/07/08 02:26:36;;;;;;;1.73;1.63;;;19.00;71.70;;;;;;5025274;28;20212;-61
2023/07/08 02:29:04;;;;;;;2.53;1.92;;;19.00;70.90;;;;;;5026277;28;20250;-61
2023/07/08 02:31:31;;;;;;;2.03;1.83;;;19.00;72.10;;;;;;5033721;28;20196;-60
2023/07/08 02:33:58;;;;;;;2.83;1.75;;;18.90;71.90;;;;;;5031424;28;20196;-61
2023/07/08 02:36:25;;;;;;;5.28;2.03;;;18.90;72.60;;;;;;5024611;28;20767;-60
2023/07/08 02:38:52;;;;;;;4.03;2.05;;;18.90;72.00;;;;;;5029760;28;20271;-61
2023/07/08 02:41:19;;;;;;;4.20;2.30;;;18.90;71.40;;;;;;5030918;28;20688;-62
2023/07/08 02:43:47;;;;;;;1.98;1.70;;;18.90;73.50;;;;;;5029990;28;20783;-62
2023/07/08 02:46:14;;;;;;;2.55;1.90;;;18.90;75.10;;;;;;5022656;28;20286;-61
2023/07/08 02:48:41;;;;;;;2.25;1.63;;;18.80;73.40;;;;;;5026814;28;20244;-62
2023/07/08 02:51:08;;;;;;;1.90;1.65;;;18.80;73.80;;;;;;5025386;28;20573;-61
2023/07/08 02:53:36;;;;;;;4.07;2.13;;;18.80;74.60;;;;;;5022762;28;20231;-62
2023/07/08 02:56:03;;;;;;;5.45;2.05;;;18.70;74.50;;;;;;5010035;28;20690;-60
2023/07/08 02:58:30;;;;;;;1.67;1.42;;;18.70;74.90;;;;;;5037017;28;20224;-61
2023/07/08 03:01:00;;;;;;;1.98;1.77;;;18.70;75.60;;;;;;5047157;28;20207;-61
2023/07/08 03:03:29;;;;;;;4.18;1.80;;;18.70;74.40;;;;;;5028669;28;20307;-62
2023/07/08 03:05:59;;;;;;;1.75;1.60;;;18.60;75.90;;;;;;5032960;28;20224;-62
2023/07/08 03:08:27;;;;;;;2.33;1.73;;;18.60;76.20;;;;;;5019911;28;20238;-62
2023/07/08 03:10:56;;;;;;;5.85;2.00;;;18.60;96.00;;;;;;5027623;28;20204;-61
2023/07/08 03:13:25;;;;;;;3.15;1.92;;;18.60;76.80;;;;;;5021317;28;20847;-61
2023/07/08 03:15:54;;;;;;;2.55;2.20;;;18.60;76.90;;;;;;5026537;28;20607;-61
2023/07/08 03:18:24;;;;;;;3.20;2.08;;;18.60;77.50;;;;;;5021597;28;20201;-60
2023/07/08 03:20:55;;;;;;;5.35;1.98;;;18.60;77.20;;;;;;5026307;28;20576;-61
2023/07/08 03:23:24;;;;;;;2.35;2.15;;;18.60;77.30;;;;;;5025971;28;20200;-60
2023/07/08 03:25:52;;;;;;;2.00;1.63;;;18.60;76.90;;;;;;5025320;28;20232;-61
2023/07/08 03:28:20;;;;;;;2.22;1.90;;;18.60;77.20;;;;;;5019858;28;20691;-61
2023/07/08 03:30:53;;;;;;;2.15;1.70;;;18.60;77.80;;;;;;5017143;28;20255;-61
2023/07/08 03:33:20;;;;;;;2.72;1.80;;;18.70;77.30;;;;;;5022365;28;20418;-61
2023/07/08 03:35:48;;;;;;;3.50;2.00;;;18.60;78.90;;;;;;5016845;28;20291;-64
2023/07/08 03:38:16;;;;;;;3.63;2.10;;;18.50;78.60;;;;;;5024999;28;20196;-63
2023/07/08 03:40:44;;;;;;;2.55;1.80;;;18.50;78.70;;;;;;5036604;28;20667;-61
2023/07/08 03:43:11;;;;;;;3.75;1.90;;;18.40;80.00;;;;;;5026488;28;20208;-63
2023/07/08 03:45:38;;;;;;;2.45;2.20;;;18.40;81.10;;;;;;5022142;28;20211;-62
2023/07/08 03:48:10;;;;;;;2.78;2.00;;;18.30;83.70;;;;;;5005479;28;20254;-61
2023/07/08 03:50:38;;;;;;;4.05;2.40;;;18.40;82.70;;;;;;5024244;28;20662;-61
2023/07/08 03:53:05;;;;;;;3.15;2.10;;;18.50;83.10;;;;;;5028582;28;20660;-61
2023/07/08 03:55:32;;;;;;;2.30;1.80;;;18.20;83.60;;;;;;5022940;28;20194;-61
2023/07/08 03:57:59;;;;;;;3.72;2.40;;;18.30;82.60;;;;;;5021778;28;20204;-60
2023/07/08 04:00:29;;;;;;;2.25;1.90;;;18.60;85.20;;;;;;5026616;28;20204;-62
2023/07/08 04:02:58;;;;;;;4.82;2.42;;;18.80;83.00;;;;;;5024568;28;20287;-61
2023/07/08 04:05:26;;;;;;;6.55;2.13;;;18.70;82.30;;;;;;5007504;28;20680;-61
2023/07/08 04:07:53;;;;;;;3.10;1.98;;;18.70;83.20;;;;;;5022630;28;20281;-60
2023/07/08 04:10:20;;;;;;;4.68;2.40;;;18.50;82.40;;;;;;5021676;28;20736;-61
2023/07/08 04:12:47;;;;;;;2.38;1.98;;;18.80;82.50;;;;;;5024149;28;20189;-60
2023/07/08 04:15:16;;;;;;;4.38;1.90;;;18.80;81.60;;;;;;5031694;28;20241;-60
2023/07/08 04:17:46;;;;;;;2.58;1.90;;;19.00;81.80;;;;;;5016119;28;20192;-61
2023/07/08 04:20:14;;;;;;;3.15;2.30;;;18.50;82.40;;;;;;5023268;28;20196;-60
2023/07/08 04:22:42;;;;;;;4.05;2.38;;;18.30;86.10;;;;;;5037130;28;20207;-60
2023/07/08 04:25:12;;;;;;;3.50;2.50;;;18.70;85.80;;;;;;5023608;28;20278;-61
2023/07/08 04:27:39;;;;;;;3.42;2.38;;;19.40;84.30;;;;;;5020560;28;20239;-59
2023/07/08 04:30:07;;;;;;;8.70;2.53;;;20.30;83.60;;;;;;5023038;28;20192;-60
2023/07/08 04:32:37;;;;;;;3.00;2.17;;;20.40;82.60;;;;;;5024183;28;20660;-60
2023/07/08 04:35:04;;;;;;;3.80;2.08;;;21.00;82.30;;;;;;5020759;28;20192;-60
2023/07/08 04:37:32;;;;;;;3.47;2.00;;;21.80;81.00;;;;;;5022471;28;20640;-61
2023/07/08 04:40:00;;;;;;;4.05;2.17;;;22.30;80.50;;;;;;5021838;28;20250;-60
2023/07/08 04:42:28;;;;;;;4.18;2.80;;;22.70;76.90;;;;;;5035720;28;20207;-60
2023/07/08 04:44:55;;;;;;;6.00;1.90;;;22.60;78.20;;;;;;5023025;28;20188;-69
2023/07/08 04:47:22;;;;;;;2.45;2.05;;;22.60;75.50;;;;;;5026269;28;20583;-67
2023/07/08 04:49:49;;;;;;;1.92;1.52;;;22.90;86.10;;;;;;5028344;28;20273;-70
2023/07/08 04:52:16;;;;;;;2.85;1.70;;;23.20;75.40;;;;;;5029577;28;20199;-71
2023/07/08 04:54:43;;;;;;;2.92;1.73;;;23.80;72.70;;;;;;5027532;28;20219;-71
2023/07/08 04:57:10;;;;;;;2.72;1.88;;;24.10;72.50;;;;;;5025990;28;20196;-71
2023/07/08 04:59:37;;;;;;;3.92;1.88;;;24.40;72.00;;;;;;5028822;28;20208;-71
2023/07/08 05:02:04;;;;;;;2.42;1.73;;;25.00;69.70;;;;;;5029522;28;20212;-71
2023/07/08 05:04:33;;;;;;;4.25;2.15;;;25.30;68.50;;;;;;5029271;28;20231;-72
2023/07/08 05:07:01;;;;;;;4.20;2.08;;;25.80;67.50;;;;;;5028678;28;20221;-71
2023/07/08 05:09:29;;;;;;;3.20;1.80;;;26.10;67.60;;;;;;5025917;28;20221;-71
2023/07/08 05:11:55;;;;;;;5.25;2.42;;;26.60;65.90;;;;;;5028439;28;20199;-71
2023/07/08 05:14:22;;;;;;;3.65;2.13;;;26.00;63.60;;;;;;5026854;28;20208;-71
2023/07/08 05:16:49;;;;;;;6.80;1.67;;;25.90;65.20;;;;;;5024163;28;20299;-71
2023/07/08 05:19:18;;;;;;;2.30;1.42;;;25.80;62.30;;;;;;5017712;28;20575;-71
2023/07/08 05:21:45;;;;;;;2.00;1.80;;;25.70;63.80;;;;;;5032807;28;20208;-68
2023/07/08 05:24:12;;;;;;;1.90;1.70;;;25.90;63.50;;;;;;5023178;28;20311;-68
2023/07/08 05:26:39;;;;;;;3.60;1.90;;;25.40;64.10;;;;;;5027755;28;20235;-68
2023/07/08 05:29:07;;;;;;;5.18;2.25;;;25.50;65.80;;;;;;5024493;28;20559;-72
2023/07/08 05:31:34;;;;;;;1.77;1.60;;;26.20;64.20;;;;;;5025763;28;20196;-71
2023/07/08 05:34:14;;;;;;;2.05;1.50;;;26.40;62.70;;;;;;5024472;28;20288;-67
2023/07/08 05:36:41;;;;;;;4.13;1.92;;;25.90;61.70;;;;;;5027431;28;20207;-72
2023/07/08 05:39:08;;;;;;;3.90;2.25;;;25.10;62.00;;;;;;5027871;28;20228;-62
2023/07/08 05:41:36;;;;;;;2.45;2.00;;;24.40;63.70;;;;;;5028042;28;20208;-73
2023/07/08 05:44:06;;;;;;;3.83;1.92;;;24.20;67.50;;;;;;5011228;28;20286;-68
2023/07/08 05:46:33;;;;;;;3.63;1.77;;;25.40;67.40;;;;;;5026306;28;20212;-70
2023/07/08 05:49:03;;;;;;;3.00;1.95;;;26.90;64.90;;;;;;5027912;28;20283;-62
2023/07/08 05:51:30;;;;;;;3.33;1.83;;;28.20;61.70;;;;;;5025237;28;20197;-70
2023/07/08 05:53:57;;;;;;;2.28;1.85;;;29.20;59.50;;;;;;5025080;28;20192;-71
2023/07/08 05:56:26;;;;;;;2.95;1.90;;;29.10;59.20;;;;;;5026348;28;20636;-70
2023/07/08 05:58:53;;;;;;;2.53;1.98;;;29.70;58.20;;;;;;5029793;28;20195;-70
2023/07/08 06:01:20;;;;;;;2.25;1.73;;;29.90;58.50;;;;;;5024685;28;20197;-60
2023/07/08 06:03:49;;;;;;;5.50;2.08;;;29.90;57.00;;;;;;5010073;28;20234;-61
2023/07/08 06:06:17;;;;;;;2.78;1.80;;;30.70;56.60;;;;;;5023567;28;20565;-62
2023/07/08 06:08:48;;;;;;;3.65;1.63;;;31.00;55.20;;;;;;5004352;28;20189;-65
2023/07/08 06:11:15;;;;;;;2.00;1.60;;;31.70;54.50;;;;;;5025225;28;20192;-62
2023/07/08 06:13:42;;;;;;;2.00;1.70;;;31.40;48.40;;;;;;5027372;28;20569;-63
2023/07/08 06:16:09;;;;;;;4.30;1.90;;;31.20;49.70;;;;;;5028060;28;20196;-62
2023/07/08 06:18:39;;;;;;;2.45;1.90;;;30.80;51.50;;;;;;5028142;28;20676;-62
2023/07/08 06:21:06;;;;;;;4.53;2.58;;;29.90;50.80;;;;;;5027548;28;20216;-74
2023/07/08 06:23:33;;;;;;;3.33;1.83;;;31.00;52.70;;;;;;5025641;28;20200;-73
2023/07/08 06:26:03;;;;;;;3.67;1.90;;;31.00;53.70;;;;;;5030624;28;20234;-73
2023/07/08 06:28:30;;;;;;;3.40;2.10;;;31.30;51.10;;;;;;5029471;28;20422;-73
2023/07/08 06:30:57;;;;;;;3.92;2.15;;;30.70;49.40;;;;;;5027758;28;20258;-72
2023/07/08 06:33:24;;;;;;;2.88;1.90;;;30.90;50.30;;;;;;5021319;28;20193;-74
2023/07/08 06:36:00;;;;;;;3.20;1.80;;;32.20;49.10;;;;;;5006578;28;20299;-75
2023/07/08 06:38:43;;;;;;;3.75;1.95;;;31.60;48.20;;;;;;5027881;28;20288;-68
2023/07/08 06:41:11;;;;;;;2.75;2.05;;;31.90;47.40;;;;;;5029182;28;20285;-64
2023/07/08 06:43:37;;;;;;;3.55;1.90;;;32.00;46.20;;;;;;5021995;28;20767;-63
2023/07/08 06:46:13;;;;;;;2.10;1.63;;;32.70;46.40;;;;;;5019254;28;20451;-65
2023/07/08 06:48:40;;;;;;;3.58;2.45;;;32.70;45.30;;;;;;5025834;28;20642;-64
2023/07/08 06:51:11;;;;;;;4.45;2.72;;;31.60;45.00;;;;;;5028355;28;20572;-66
2023/07/08 06:53:41;;;;;;;2.72;2.00;;;31.40;44.00;;;;;;5027424;28;20195;-61
2023/07/08 06:56:14;;;;;;;2.50;1.83;;;32.10;43.20;;;;;;5028909;28;20211;-71
2023/07/08 06:58:42;;;;;;;3.33;1.77;;;33.20;44.40;;;;;;5027526;28;20300;-72
2023/07/08 07:01:25;;;;;;;4.88;1.90;;;34.50;42.50;;;;;;5023545;28;20650;-68
2023/07/08 07:03:55;;;;;;;5.60;2.40;;;34.20;42.80;;;;;;5024693;28;20246;-74
2023/07/08 07:06:30;;;;;;;2.08;1.80;;;34.50;43.70;;;;;;5006445;28;20195;-63
2023/07/08 07:09:02;;;;;;;2.80;1.95;;;34.10;41.00;;;;;;5020890;28;20679;-64
2023/07/08 07:11:35;;;;;;;3.38;2.17;;;34.20;40.10;;;;;;5024415;28;20199;-67
2023/07/08 07:14:09;;;;;;;4.38;2.10;;;34.50;39.80;;;;;;5012218;28;20198;-67
2023/07/08 07:16:43;;;;;;;4.32;2.35;;;35.10;38.70;;;;;;5025105;28;20200;-75
2023/07/08 07:19:36;;;;;;;2.72;1.90;;;33.40;37.70;;;;;;5011444;28;20216;-67
2023/07/08 07:22:04;;;;;;;2.75;2.15;;;34.10;38.20;;;;;;5027240;28;20692;-66
2023/07/08 07:24:31;;;;;;;3.58;2.33;;;34.00;38.50;;;;;;5021790;28;20228;-77
2023/07/08 07:26:58;;;;;;;5.82;2.33;;;35.50;37.40;;;;;;5028445;28;20274;-75
2023/07/08 07:29:25;;;;;;;2.72;1.90;;;35.10;34.70;;;;;;5028270;28;20208;-71
2023/07/08 07:31:52;;;;;;;2.95;2.42;;;34.60;36.40;;;;;;5026427;28;20207;-68
2023/07/08 07:34:19;;;;;;;4.53;2.20;;;33.80;36.70;;;;;;5025996;28;20686;-67
2023/07/08 07:36:46;;;;;;;2.33;1.85;;;35.30;36.90;;;;;;5029386;28;20656;-69
2023/07/08 07:39:13;;;;;;;3.28;2.45;;;37.30;34.50;;;;;;5027151;28;20590;-70
2023/07/08 07:41:41;;;;;;;5.20;2.00;;;38.50;33.50;;;;;;5024391;28;20223;-70
2023/07/08 07:44:08;;;;;;;3.10;2.00;;;37.90;35.00;;;;;;5027559;28;20289;-74
2023/07/08 07:46:35;;;;;;;4.28;2.78;;;37.60;33.80;;;;;;5023531;28;20192;-69
2023/07/08 07:49:02;;;;;;;2.67;2.38;;;36.20;31.10;;;;;;5028375;28;20339;-76
2023/07/08 07:51:31;;;;;;;3.45;2.67;;;35.70;33.00;;;;;;5029891;28;20672;-76
2023/07/08 07:53:58;;;;;;;3.70;2.50;;;36.80;33.00;;;;;;5027947;28;20189;-74
2023/07/08 07:56:28;;;;;;;3.13;2.40;;;37.00;31.00;;;;;;5028082;28;20192;-74
2023/07/08 07:58:58;;;;;;;3.88;2.60;;;36.20;32.80;;;;;;5004115;28;20291;-73
2023/07/08 08:01:27;;;;;;;5.80;2.47;;;37.60;30.10;;;;;;5024395;28;20227;-73
2023/07/08 08:04:00;;;;;;;3.25;2.50;;;37.40;29.50;;;;;;5032997;28;20247;-73
2023/07/08 08:06:30;;;;;;;3.17;2.70;;;38.30;28.60;;;;;;5024467;28;20311;-74
2023/07/08 08:09:00;;;;;;;3.45;2.25;;;37.40;30.30;;;;;;5023561;28;20226;-74
2023/07/08 08:11:27;;;;;;;3.15;2.20;;;37.60;29.70;;;;;;5023377;28;20192;-75
2023/07/08 08:13:58;;;;;;;3.53;2.70;;;37.50;28.60;;;;;;5026070;28;20206;-75
2023/07/08 08:16:33;;;;;;;6.38;2.55;;;37.50;31.40;;;;;;5017764;28;20196;-75
2023/07/08 08:19:00;;;;;;;3.45;2.53;;;39.40;28.90;;;;;;5018329;28;20196;-71
2023/07/08 08:21:27;;;;;;;4.50;2.22;;;38.90;26.50;;;;;;5016552;28;20192;-63
2023/07/08 08:24:05;;;;;;;6.30;2.85;;;38.40;26.50;;;;;;5018579;28;20208;-62
2023/07/08 08:26:32;;;;;;;4.90;2.63;;;38.90;25.00;;;;;;5030487;28;20291;-62
2023/07/08 08:29:00;;;;;;;3.53;2.17;;;38.20;24.80;;;;;;5008476;28;20310;-73
2023/07/08 08:31:31;;;;;;;3.67;2.72;;;38.90;26.10;;;;;;5021654;28;20729;-72
2023/07/08 08:33:58;;;;;;;4.57;3.17;;;38.60;24.30;;;;;;5007922;28;20198;-66
2023/07/08 08:36:25;;;;;;;5.70;2.75;;;39.60;25.50;;;;;;5021635;28;20195;-71
2023/07/08 08:38:57;;;;;;;2.83;2.30;;;39.30;21.30;;;;;;5022953;28;20203;-72
2023/07/08 08:41:31;;;;;;;4.15;2.38;;;40.20;22.70;;;;;;5021240;28;20479;-72
2023/07/08 08:44:01;;;;;;;5.10;3.00;;;40.80;23.10;;;;;;5020082;28;20198;-73
2023/07/08 08:46:56;;;;;;;3.35;2.70;;;39.20;23.90;;;;;;5005629;28;20202;-73
2023/07/08 08:49:30;;;;;;;5.60;3.00;;;40.50;22.70;;;;;;5023285;28;20580;-72
2023/07/08 08:51:59;;;;;;;4.45;2.30;;;40.90;22.40;;;;;;5024901;28;20195;-72
2023/07/08 08:54:30;;;;;;;3.53;2.50;;;41.00;21.00;;;;;;5024027;28;20200;-71
2023/07/08 08:57:16;;;;;;;4.47;2.72;;;40.10;21.30;;;;;;5019475;28;20530;-72
2023/07/08 08:59:53;;;;;;;3.70;2.58;;;39.70;38.00;;;;;;5007652;28;20199;-72
2023/07/08 09:02:44;;;;;;;5.28;2.65;;;39.80;21.70;;;;;;5021729;28;20385;-72
2023/07/08 09:05:13;;;;;;;4.68;2.95;;;40.50;19.80;;;;;;5024303;28;20695;-71
2023/07/08 09:08:06;;;;;;;3.38;2.40;;;39.90;19.40;;;;;;5029225;28;20227;-72
2023/07/08 09:10:56;;;;;;;4.13;2.83;;;40.40;19.50;;;;;;5022092;28;20192;-71
2023/07/08 09:13:36;;;;;;;4.63;2.72;;;39.60;17.50;;;;;;5022606;28;20246;-72
2023/07/08 09:16:36;;;;;;;4.07;2.78;;;38.10;14.70;;;;;;5025562;28;20278;-71
2023/07/08 09:19:06;;;;;;;4.97;3.42;;;40.20;17.20;;;;;;5011605;28;20204;-71
2023/07/08 09:22:04;;;;;;;3.83;3.08;;;41.20;17.30;;;;;;5016348;28;20211;-71
2023/07/08 09:24:43;;;;;;;4.03;2.92;;;40.30;17.30;;;;;;5006022;28;20232;-71
2023/07/08 09:27:10;;;;;;;5.35;3.03;;;40.60;15.20;;;;;;5025029;28;20196;-71
2023/07/08 09:29:37;;;;;;;4.13;3.20;;;39.20;14.00;;;;;;5020155;28;20204;-71
2023/07/08 09:32:33;;;;;;;6.90;3.70;;;39.40;15.30;;;;;;5018307;28;20207;-71
2023/07/08 09:35:07;;;;;;;7.68;3.17;;;38.50;15.70;;;;;;5009683;28;20239;-71
2023/07/08 09:37:38;;;;;;;5.38;3.05;;;38.60;14.50;;;;;;5030066;28;20555;-72
2023/07/08 09:40:16;;;;;;;4.03;2.97;;;37.20;11.60;;;;;;5030139;28;20203;-71
2023/07/08 09:42:46;;;;;;;3.63;2.97;;;37.90;15.20;;;;;;5031057;28;20199;-73
2023/07/08 09:45:17;;;;;;;3.88;3.03;;;37.90;14.60;;;;;;5027663;28;20283;-71
2023/07/08 09:47:45;;;;;;;6.80;3.50;;;39.40;31.80;;;;;;5025273;28;20690;-72
2023/07/08 09:50:18;;;;;;;4.28;2.97;;;37.50;11.00;;;;;;5028169;28;20675;-71
2023/07/08 09:52:50;;;;;;;4.80;3.22;;;38.50;14.10;;;;;;5028043;28;20192;-73
2023/07/08 09:55:17;;;;;;;4.72;3.50;;;38.40;12.90;;;;;;5025651;28;20199;-72
2023/07/08 09:57:50;;;;;;;3.95;3.35;;;39.40;14.30;;;;;;5028732;28;20195;-72
2023/07/08 10:00:26;;;;;;;3.63;2.83;;;39.40;11.90;;;;;;5026056;28;20605;-71
2023/07/08 10:02:58;;;;;;;4.63;2.95;;;40.70;12.80;;;;;;5023564;28;20226;-71
2023/07/08 10:05:43;;;;;;;4.93;3.17;;;40.10;26.80;;;;;;5023657;28;20253;-71
2023/07/08 10:08:23;;;;;;;4.90;3.33;;;41.30;11.40;;;;;;5024636;28;20638;-71
2023/07/08 10:11:18;;;;;;;4.32;3.22;;;41.10;8.60;;;;;;5027705;28;20194;-71
2023/07/08 10:14:01;;;;;;;5.85;3.38;;;41.10;9.50;;;;;;5017115;28;20209;-71
2023/07/08 10:16:40;;;;;;;5.13;3.13;;;38.80;5.90;;;;;;5020286;28;20199;-72
2023/07/08 10:19:17;;;;;;;4.13;2.95;;;39.50;8.30;;;;;;5016039;28;20199;-71
2023/07/08 10:21:50;;;;;;;4.78;3.10;;;39.60;9.20;;;;;;5021464;28;20286;-73
2023/07/08 10:24:38;;;;;;;4.53;3.55;;;38.50;5.50;;;;;;5032487;28;20231;-71
2023/07/08 10:27:14;;;;;;;6.03;3.30;;;38.70;8.10;;;;;;5023934;28;20303;-71
2023/07/08 10:30:07;;;;;;;5.47;3.80;;;39.40;7.60;;;;;;5025211;28;20222;-71
2023/07/08 10:33:16;;;;;;;3.83;3.03;;;39.20;7.40;;;;;;5034775;28;20198;-71
2023/07/08 10:36:23;;;;;;;5.28;3.58;;;39.20;6.20;;;;;;5025710;28;20221;-72
2023/07/08 10:39:22;;;;;;;5.32;3.60;;;38.30;4.00;;;;;;4977792;28;20201;-72
2023/07/08 10:41:52;;;;;;;5.07;3.38;;;36.60;2.80;;;;;;4997396;28;20266;-73
2023/07/08 10:44:43;;;;;;;5.88;3.65;;;37.70;4.60;;;;;;5025692;28;20227;-73
2023/07/08 10:47:16;;;;;;;5.15;4.15;;;36.50;2.40;;;;;;5024902;28;20726;-72
2023/07/08 10:50:17;;;;;;;4.80;3.58;;;35.80;2.00;;;;;;5028261;28;20211;-73
2023/07/08 10:53:09;;;;;;;4.85;3.70;;;35.50;2.30;;;;;;5032071;28;20612;-72
2023/07/08 10:55:51;;;;;;;6.40;3.75;;;38.00;4.40;;;;;;5030038;28;20674;-72
2023/07/08 10:58:55;;;;;;;5.88;3.53;;;39.10;4.30;;;;;;5010951;28;20756;-72
2023/07/08 11:01:44;;;;;;;5.78;3.88;;;39.90;3.30;;;;;;5036478;28;20207;-73
2023/07/08 11:04:27;;;;;;;6.80;3.40;;;39.40;2.30;;;;;;5029014;28;20297;-73
2023/07/08 11:06:59;;;;;;;5.32;3.83;;;39.70;2.40;;;;;;5036754;28;20210;-73
2023/07/08 11:09:38;;;;;;;4.65;3.85;;;38.50;1.00;;;;;;5027786;28;20231;-73
2023/07/08 11:12:22;;;;;;;5.70;3.67;;;39.20;1.10;;;;;;5025569;28;20200;-74
2023/07/08 11:14:59;;;;;;;4.35;3.90;;;39.50;1.00;;;;;;5001184;28;20647;-73
2023/07/08 11:17:40;;;;;;;6.63;4.47;;;38.90;1.00;;;;;;5020993;28;20200;-73
2023/07/08 11:20:31;;;;;;;4.75;4.00;;;39.90;1.00;;;;;;5010576;28;20610;-73
2023/07/08 11:23:23;;;;;;;6.60;4.72;;;39.80;1.00;;;;;;5021591;28;20661;-73
2023/07/08 11:25:59;;;;;;;5.18;3.88;;;38.40;1.00;;;;;;5022644;28;20240;-74
2023/07/08 11:28:26;;;;;;;6.70;4.80;;;38.60;1.00;;;;;;5026214;28;20226;-74
2023/07/08 11:30:53;;;;;;;6.97;4.45;;;37.70;1.00;;;;;;5025752;28;20508;-73
2023/07/08 11:33:25;;;;;;;9.13;4.63;;;37.30;1.00;;;;;;5005217;28;20430;-73
2023/07/08 11:35:58;;;;;;;5.47;4.05;;;37.70;1.00;;;;;;5021919;28;20585;-73
2023/07/08 11:38:25;;;;;;;6.35;3.80;;;38.10;1.00;;;;;;5024432;28;21136;-74
2023/07/08 11:41:00;;;;;;;5.63;3.63;;;38.50;1.00;;;;;;5025609;28;20676;-73
2023/07/08 11:44:04;;;;;;;6.15;4.43;;;38.80;1.00;;;;;;5023771;28;20203;-74
2023/07/08 11:46:34;;;;;;;6.25;4.45;;;38.80;1.00;;;;;;4983117;28;20248;-74
2023/07/08 11:49:10;;;;;;;5.68;4.35;;;39.30;1.00;;;;;;5014696;28;20665;-73
2023/07/08 11:51:41;;;;;;;8.88;4.00;;;39.20;1.00;;;;;;5022856;28;20714;-73
2023/07/08 11:54:26;;;;;;;5.00;3.63;;;39.30;1.00;;;;;;5028033;28;20199;-74
2023/07/08 11:57:09;;;;;;;7.50;3.95;;;39.40;1.00;;;;;;5022520;28;20200;-73
2023/07/08 11:59:41;;;;;;;5.35;4.22;;;38.70;1.00;;;;;;5025332;28;20261;-74
2023/07/08 12:02:19;;;;;;;6.45;4.28;;;38.80;1.00;;;;;;5025089;28;20246;-74
2023/07/08 12:05:02;;;;;;;6.22;4.35;;;39.00;1.00;;;;;;5023716;28;20284;-74
2023/07/08 12:07:31;;;;;;;5.78;4.55;;;38.30;1.00;;;;;;5022491;28;20508;-73
2023/07/08 12:10:11;;;;;;;6.93;4.20;;;38.00;1.00;;;;;;5029415;28;20223;-75
2023/07/08 12:12:42;;;;;;;6.32;4.32;;;38.30;1.00;;;;;;5026289;28;20191;-74
2023/07/08 12:15:09;;;;;;;7.43;4.72;;;37.80;1.00;;;;;;5009748;28;20274;-74
2023/07/08 12:17:39;;;;;;;5.55;3.92;;;37.60;1.00;;;;;;5022838;28;20660;-74
2023/07/08 12:20:17;;;;;;;6.22;4.40;;;37.20;1.00;;;;;;5027142;28;20196;-74
2023/07/08 12:22:44;;;;;;;5.68;4.15;;;36.70;1.00;;;;;;5024340;28;20223;-74
2023/07/08 12:25:16;;;;;;;6.70;4.07;;;36.80;1.00;;;;;;5021106;28;20232;-74
2023/07/08 12:27:45;;;;;;;6.70;4.63;;;37.00;1.00;;;;;;5027016;28;20208;-73
2023/07/08 12:30:13;;;;;;;12.13;4.55;;;36.40;1.00;;;;;;5022946;28;21000;-74
2023/07/08 12:32:42;;;;;;;4.65;3.75;;;36.30;1.00;;;;;;5030385;28;20285;-74
2023/07/08 12:35:31;;;;;;;8.02;4.45;;;36.50;1.00;;;;;;5025919;28;20193;-74
2023/07/08 12:38:09;;;;;;;5.88;4.53;;;36.10;1.00;;;;;;5026755;28;20215;-74
2023/07/08 12:40:36;;;;;;;8.52;4.85;;;35.60;1.00;;;;;;5026121;28;20188;-74
2023/07/08 12:43:10;;;;;;;7.10;4.68;;;35.70;1.00;;;;;;5025044;28;20196;-74
2023/07/08 12:45:37;;;;;;;8.02;4.80;;;35.60;1.00;;;;;;5025561;28;20201;-75
2023/07/08 12:48:05;;;;;;;5.63;4.05;;;35.30;1.00;;;;;;5029017;28;20682;-74
2023/07/08 12:50:32;;;;;;;6.95;4.10;;;34.60;1.00;;;;;;5029101;28;20275;-75
2023/07/08 12:53:04;;;;;;;7.45;4.22;;;34.80;1.00;;;;;;5034148;28;20663;-74
2023/07/08 12:55:31;;;;;;;6.38;4.68;;;35.10;1.00;;;;;;5028190;28;20204;-76
2023/07/08 12:57:59;;;;;;;7.43;4.60;;;35.00;1.00;;;;;;5027766;28;20203;-75
2023/07/08 13:00:32;;;;;;;7.53;4.32;;;34.90;1.00;;;;;;5021487;28;20201;-75
2023/07/08 13:03:05;;;;;;;8.45;4.15;;;34.10;1.00;;;;;;5034678;28;20203;-74
2023/07/08 13:05:33;;;;;;;8.88;4.95;;;34.20;1.00;;;;;;5025310;28;20878;-75
2023/07/08 13:08:00;;;;;;;7.57;4.32;;;34.20;1.00;;;;;;5025972;28;20200;-74
2023/07/08 13:10:29;;;;;;;5.22;3.60;;;33.80;1.00;;;;;;5022623;28;20680;-77
2023/07/08 13:13:00;;;;;;;7.90;4.40;;;34.20;1.00;;;;;;5029560;28;20599;-73
2023/07/08 13:15:39;;;;;;;8.15;3.67;;;34.50;1.00;;;;;;5029947;28;20660;-73
2023/07/08 13:18:18;;;;;;;7.35;4.22;;;34.50;1.00;;;;;;5024298;28;20793;-73